sensor_id;sensor_type;location;lat;lon;timestamp;temperature;humidity
15343;DHT22;7771;48.478;8.936;2023-09-07T00:00:01;16.50;99.90
15343;DHT22;7771;48.478;8.936;2023-09-07T00:02:28;16.50;99.90
15343;DHT22;7771;48.478;8.936;2023-09-07T00:04:55;16.50;99.90
15343;DHT22;7771;48.478;8.936;2023-09-07T00:07:21;16.50;99.90
15343;DHT22;7771;48.478;8.936;2023-09-07T00:09:49;16.50;99.90
15343;DHT22;7771;48.478;8.936;2023-09-07T00:12:15;16.40;99.90
15343;DHT22;7771;48.478;8.936;2023-09-07T00:14:43;16.40;99.90
15343;DHT22;7771;48.478;8.936;2023-09-07T00:17:10;16.40;99.90
15343;DHT22;7771;48.478;8.936;2023-09-07T00:19:37;16.40;99.90
15343;DHT22;7771;48.478;8.936;2023-09-07T00:22:05;16.30;99.90
15343;DHT22;7771;48.478;8.936;2023-09-07T00:24:32;16.30;99.90
15343;DHT22;7771;48.478;8.936;2023-09-07T00:26:58;16.30;99.90
15343;DHT22;7771;48.478;8.936;2023-09-07T00:29:25;16.20;99.90
15343;DHT22;7771;48.478;8.936;2023-09-07T00:31:52;16.20;99.90
15343;DHT22;7771;48.478;8.936;2023-09-07T00:34:19;16.20;99.90
15343;DHT22;7771;48.478;8.936;2023-09-07T00:36:45;16.20;99.90
15343;DHT22;7771;48.478;8.936;2023-09-07T00:39:13;16.10;99.90
15343;DHT22;7771;48.478;8.936;2023-09-07T00:41:39;16.10;99.90
15343;DHT22;7771;48.478;8.936;2023-09-07T00:44:07;16.10;99.90
15343;DHT22;7771;48.478;8.936;2023-09-07T00:46:34;16.10;99.90
15343;DHT22;7771;48.478;8.936;2023-09-07T00:49:02;16.10;99.90
15343;DHT22;7771;48.478;8.936;2023-09-07T00:51:29;16.10;99.90
15343;DHT22;7771;48.478;8.936;2023-09-07T00:53:56;16.10;99.90
15343;DHT22;7771;48.478;8.936;2023-09-07T00:56:23;16.00;99.90
15343;DHT22;7771;48.478;8.936;2023-09-07T00:58:49;16.00;99.90
15343;DHT22;7771;48.478;8.936;2023-09-07T01:01:16;16.00;99.90
15343;DHT22;7771;48.478;8.936;2023-09-07T01:03:43;16.00;99.90
15343;DHT22;7771;48.478;8.936;2023-09-07T01:06:14;16.00;99.90
15343;DHT22;7771;48.478;8.936;2023-09-07T01:08:42;16.00;99.90
15343;DHT22;7771;48.478;8.936;2023-09-07T01:13:39;16.00;99.90
15343;DHT22;7771;48.478;8.936;2023-09-07T01:16:06;15.90;99.90
15343;DHT22;7771;48.478;8.936;2023-09-07T01:18:33;15.90;99.90
15343;DHT22;7771;48.478;8.936;2023-09-07T01:21:02;15.90;99.90
15343;DHT22;7771;48.478;8.936;2023-09-07T01:23:28;15.90;99.90
15343;DHT22;7771;48.478;8.936;2023-09-07T01:25:55;15.80;99.90
15343;DHT22;7771;48.478;8.936;2023-09-07T01:28:22;15.80;99.90
15343;DHT22;7771;48.478;8.936;2023-09-07T01:30:51;15.80;99.90
15343;DHT22;7771;48.478;8.936;2023-09-07T01:33:17;15.80;99.90
15343;DHT22;7771;48.478;8.936;2023-09-07T01:35:45;15.80;99.90
15343;DHT22;7771;48.478;8.936;2023-09-07T01:38:12;15.70;99.90
15343;DHT22;7771;48.478;8.936;2023-09-07T01:40:40;15.70;99.90
15343;DHT22;7771;48.478;8.936;2023-09-07T01:43:07;15.70;99.90
15343;DHT22;7771;48.478;8.936;2023-09-07T01:45:33;15.70;99.90
15343;DHT22;7771;48.478;8.936;2023-09-07T01:48:00;15.60;99.90
15343;DHT22;7771;48.478;8.936;2023-09-07T01:50:29;15.60;99.90
15343;DHT22;7771;48.478;8.936;2023-09-07T01:52:55;15.60;99.90
15343;DHT22;7771;48.478;8.936;2023-09-07T01:55:22;15.60;99.90
15343;DHT22;7771;48.478;8.936;2023-09-07T01:57:49;15.60;99.90
15343;DHT22;7771;48.478;8.936;2023-09-07T02:00:16;15.60;99.90
15343;DHT22;7771;48.478;8.936;2023-09-07T02:02:43;15.60;99.90
15343;DHT22;7771;48.478;8.936;2023-09-07T02:05:11;15.50;99.90
15343;DHT22;7771;48.478;8.936;2023-09-07T02:07:38;15.50;99.90
15343;DHT22;7771;48.478;8.936;2023-09-07T02:10:06;15.40;99.90
15343;DHT22;7771;48.478;8.936;2023-09-07T02:12:34;15.40;99.90
15343;DHT22;7771;48.478;8.936;2023-09-07T02:15:01;15.40;99.90
15343;DHT22;7771;48.478;8.936;2023-09-07T02:17:28;15.40;99.90
15343;DHT22;7771;48.478;8.936;2023-09-07T02:19:54;15.30;99.90
15343;DHT22;7771;48.478;8.936;2023-09-07T02:22:22;15.30;99.90
15343;DHT22;7771;48.478;8.936;2023-09-07T02:24:48;15.30;99.90
15343;DHT22;7771;48.478;8.936;2023-09-07T02:27:16;15.20;99.90
15343;DHT22;7771;48.478;8.936;2023-09-07T02:29:43;15.20;99.90
15343;DHT22;7771;48.478;8.936;2023-09-07T02:32:10;15.20;99.90
15343;DHT22;7771;48.478;8.936;2023-09-07T02:34:38;15.20;99.90
15343;DHT22;7771;48.478;8.936;2023-09-07T02:37:05;15.20;99.90
15343;DHT22;7771;48.478;8.936;2023-09-07T02:39:32;15.10;99.90
15343;DHT22;7771;48.478;8.936;2023-09-07T02:41:59;15.10;99.90
15343;DHT22;7771;48.478;8.936;2023-09-07T02:44:27;15.10;99.90
15343;DHT22;7771;48.478;8.936;2023-09-07T02:49:21;15.10;99.90
15343;DHT22;7771;48.478;8.936;2023-09-07T02:57:19;15.10;99.90
15343;DHT22;7771;48.478;8.936;2023-09-07T02:59:46;15.10;99.90
15343;DHT22;7771;48.478;8.936;2023-09-07T03:02:13;15.00;99.90
15343;DHT22;7771;48.478;8.936;2023-09-07T03:04:40;15.00;99.90
15343;DHT22;7771;48.478;8.936;2023-09-07T03:07:06;15.00;99.90
15343;DHT22;7771;48.478;8.936;2023-09-07T03:09:34;15.00;99.90
15343;DHT22;7771;48.478;8.936;2023-09-07T03:12:03;14.90;99.90
15343;DHT22;7771;48.478;8.936;2023-09-07T03:16:58;14.90;99.90
15343;DHT22;7771;48.478;8.936;2023-09-07T03:21:52;14.80;99.90
15343;DHT22;7771;48.478;8.936;2023-09-07T03:26:47;14.80;99.90
15343;DHT22;7771;48.478;8.936;2023-09-07T03:29:14;14.80;99.90
15343;DHT22;7771;48.478;8.936;2023-09-07T03:31:41;14.80;99.90
15343;DHT22;7771;48.478;8.936;2023-09-07T03:36:35;14.70;99.90
15343;DHT22;7771;48.478;8.936;2023-09-07T03:39:02;14.70;99.90
15343;DHT22;7771;48.478;8.936;2023-09-07T03:41:29;14.70;99.90
15343;DHT22;7771;48.478;8.936;2023-09-07T03:43:55;14.70;99.90
15343;DHT22;7771;48.478;8.936;2023-09-07T03:46:22;14.60;99.90
15343;DHT22;7771;48.478;8.936;2023-09-07T03:48:49;14.60;99.90
15343;DHT22;7771;48.478;8.936;2023-09-07T03:51:17;14.50;99.90
15343;DHT22;7771;48.478;8.936;2023-09-07T03:56:12;14.50;99.90
15343;DHT22;7771;48.478;8.936;2023-09-07T03:58:39;14.50;99.90
15343;DHT22;7771;48.478;8.936;2023-09-07T04:01:06;14.50;99.90
15343;DHT22;7771;48.478;8.936;2023-09-07T04:03:33;14.40;99.90
15343;DHT22;7771;48.478;8.936;2023-09-07T04:06:01;14.40;99.90
15343;DHT22;7771;48.478;8.936;2023-09-07T04:08:27;14.40;99.90
15343;DHT22;7771;48.478;8.936;2023-09-07T04:13:22;14.40;99.90
15343;DHT22;7771;48.478;8.936;2023-09-07T04:15:49;14.40;99.90
15343;DHT22;7771;48.478;8.936;2023-09-07T04:20:45;14.40;99.90
15343;DHT22;7771;48.478;8.936;2023-09-07T04:23:12;14.40;99.90
15343;DHT22;7771;48.478;8.936;2023-09-07T04:25:39;14.40;99.90
15343;DHT22;7771;48.478;8.936;2023-09-07T04:28:06;14.40;99.90
15343;DHT22;7771;48.478;8.936;2023-09-07T04:33:04;14.40;99.90
15343;DHT22;7771;48.478;8.936;2023-09-07T04:35:32;14.40;99.90
15343;DHT22;7771;48.478;8.936;2023-09-07T04:37:58;14.30;99.90
15343;DHT22;7771;48.478;8.936;2023-09-07T04:40:26;14.30;99.90
15343;DHT22;7771;48.478;8.936;2023-09-07T04:42:54;14.30;99.90
15343;DHT22;7771;48.478;8.936;2023-09-07T04:47:49;14.30;99.90
15343;DHT22;7771;48.478;8.936;2023-09-07T04:50:16;14.30;99.90
15343;DHT22;7771;48.478;8.936;2023-09-07T04:52:43;14.20;99.90
15343;DHT22;7771;48.478;8.936;2023-09-07T04:55:10;14.30;99.90
15343;DHT22;7771;48.478;8.936;2023-09-07T05:00:06;14.20;99.90
15343;DHT22;7771;48.478;8.936;2023-09-07T05:05:03;14.20;99.90
15343;DHT22;7771;48.478;8.936;2023-09-07T05:07:30;14.20;99.90
15343;DHT22;7771;48.478;8.936;2023-09-07T05:09:57;14.30;99.90
15343;DHT22;7771;48.478;8.936;2023-09-07T05:12:25;14.30;99.90
15343;DHT22;7771;48.478;8.936;2023-09-07T05:14:53;14.20;99.90
15343;DHT22;7771;48.478;8.936;2023-09-07T05:17:19;14.20;99.90
15343;DHT22;7771;48.478;8.936;2023-09-07T05:19:47;14.10;99.90
15343;DHT22;7771;48.478;8.936;2023-09-07T05:22:13;14.20;99.90
15343;DHT22;7771;48.478;8.936;2023-09-07T05:24:41;14.20;99.90
15343;DHT22;7771;48.478;8.936;2023-09-07T05:27:09;14.20;99.90
15343;DHT22;7771;48.478;8.936;2023-09-07T05:29:35;14.20;99.90
15343;DHT22;7771;48.478;8.936;2023-09-07T05:34:31;14.20;99.90
15343;DHT22;7771;48.478;8.936;2023-09-07T05:36:58;14.20;99.90
15343;DHT22;7771;48.478;8.936;2023-09-07T05:39:25;14.30;99.90
15343;DHT22;7771;48.478;8.936;2023-09-07T05:41:52;14.30;99.90
15343;DHT22;7771;48.478;8.936;2023-09-07T05:44:19;14.30;99.90
15343;DHT22;7771;48.478;8.936;2023-09-07T05:46:47;14.40;99.90
15343;DHT22;7771;48.478;8.936;2023-09-07T05:49:14;14.40;99.90
15343;DHT22;7771;48.478;8.936;2023-09-07T05:51:42;14.50;99.90
15343;DHT22;7771;48.478;8.936;2023-09-07T05:54:08;14.50;99.90
15343;DHT22;7771;48.478;8.936;2023-09-07T05:56:36;14.50;99.90
15343;DHT22;7771;48.478;8.936;2023-09-07T05:59:02;14.60;99.90
15343;DHT22;7771;48.478;8.936;2023-09-07T06:01:30;14.60;99.90
15343;DHT22;7771;48.478;8.936;2023-09-07T06:08:54;14.80;99.90
15343;DHT22;7771;48.478;8.936;2023-09-07T06:11:20;14.90;99.90
15343;DHT22;7771;48.478;8.936;2023-09-07T06:13:48;14.90;99.90
15343;DHT22;7771;48.478;8.936;2023-09-07T06:16:15;15.00;99.90
15343;DHT22;7771;48.478;8.936;2023-09-07T06:18:42;15.00;99.90
15343;DHT22;7771;48.478;8.936;2023-09-07T06:21:10;15.00;99.90
15343;DHT22;7771;48.478;8.936;2023-09-07T06:23:37;15.10;99.90
15343;DHT22;7771;48.478;8.936;2023-09-07T06:26:03;15.20;99.90
15343;DHT22;7771;48.478;8.936;2023-09-07T06:28:31;15.20;99.90
15343;DHT22;7771;48.478;8.936;2023-09-07T06:30:57;15.20;99.90
15343;DHT22;7771;48.478;8.936;2023-09-07T06:33:25;15.30;99.90
15343;DHT22;7771;48.478;8.936;2023-09-07T06:35:53;15.30;99.90
15343;DHT22;7771;48.478;8.936;2023-09-07T06:38:19;15.40;99.90
15343;DHT22;7771;48.478;8.936;2023-09-07T06:43:15;15.60;99.90
15343;DHT22;7771;48.478;8.936;2023-09-07T06:48:10;15.80;99.90
15343;DHT22;7771;48.478;8.936;2023-09-07T06:50:38;15.80;99.90
15343;DHT22;7771;48.478;8.936;2023-09-07T06:53:05;15.90;99.90
15343;DHT22;7771;48.478;8.936;2023-09-07T06:55:32;16.10;99.90
15343;DHT22;7771;48.478;8.936;2023-09-07T06:57:59;16.20;99.90
15343;DHT22;7771;48.478;8.936;2023-09-07T07:00:26;16.30;99.90
15343;DHT22;7771;48.478;8.936;2023-09-07T07:02:54;16.40;99.90
15343;DHT22;7771;48.478;8.936;2023-09-07T07:05:20;16.60;99.90
15343;DHT22;7771;48.478;8.936;2023-09-07T07:07:48;16.70;99.90
15343;DHT22;7771;48.478;8.936;2023-09-07T07:10:16;16.90;99.90
15343;DHT22;7771;48.478;8.936;2023-09-07T07:15:10;17.20;99.90
15343;DHT22;7771;48.478;8.936;2023-09-07T07:17:38;17.30;99.90
15343;DHT22;7771;48.478;8.936;2023-09-07T07:20:07;17.50;99.90
15343;DHT22;7771;48.478;8.936;2023-09-07T07:25:02;18.50;99.90
15343;DHT22;7771;48.478;8.936;2023-09-07T07:29:58;20.90;99.90
15343;DHT22;7771;48.478;8.936;2023-09-07T07:32:25;22.20;99.90
15343;DHT22;7771;48.478;8.936;2023-09-07T07:34:54;23.30;99.90
15343;DHT22;7771;48.478;8.936;2023-09-07T07:37:22;24.40;99.90
15343;DHT22;7771;48.478;8.936;2023-09-07T07:39:50;25.40;99.90
15343;DHT22;7771;48.478;8.936;2023-09-07T07:42:16;26.30;99.90
15343;DHT22;7771;48.478;8.936;2023-09-07T07:44:43;27.20;99.90
15343;DHT22;7771;48.478;8.936;2023-09-07T07:47:10;27.60;98.30
15343;DHT22;7771;48.478;8.936;2023-09-07T07:52:05;27.30;96.00
15343;DHT22;7771;48.478;8.936;2023-09-07T07:54:34;26.80;96.00
15343;DHT22;7771;48.478;8.936;2023-09-07T07:57:00;26.40;96.30
15343;DHT22;7771;48.478;8.936;2023-09-07T07:59:27;25.90;96.60
15343;DHT22;7771;48.478;8.936;2023-09-07T08:01:55;25.70;97.00
15343;DHT22;7771;48.478;8.936;2023-09-07T08:04:22;25.40;97.70
15343;DHT22;7771;48.478;8.936;2023-09-07T08:06:49;25.30;97.40
15343;DHT22;7771;48.478;8.936;2023-09-07T08:09:17;25.10;97.60
15343;DHT22;7771;48.478;8.936;2023-09-07T08:11:44;25.00;97.90
15343;DHT22;7771;48.478;8.936;2023-09-07T08:14:11;25.00;97.80
15343;DHT22;7771;48.478;8.936;2023-09-07T08:16:38;24.90;98.00
15343;DHT22;7771;48.478;8.936;2023-09-07T08:19:05;25.00;98.30
15343;DHT22;7771;48.478;8.936;2023-09-07T08:21:32;25.00;98.10
15343;DHT22;7771;48.478;8.936;2023-09-07T08:23:59;25.10;97.90
15343;DHT22;7771;48.478;8.936;2023-09-07T08:26:26;25.20;97.70
15343;DHT22;7771;48.478;8.936;2023-09-07T08:28:52;25.30;97.70
15343;DHT22;7771;48.478;8.936;2023-09-07T08:31:19;25.30;97.40
15343;DHT22;7771;48.478;8.936;2023-09-07T08:33:46;25.30;97.40
15343;DHT22;7771;48.478;8.936;2023-09-07T08:36:13;25.30;97.50
15343;DHT22;7771;48.478;8.936;2023-09-07T08:38:40;25.30;97.70
15343;DHT22;7771;48.478;8.936;2023-09-07T08:41:07;25.30;98.00
15343;DHT22;7771;48.478;8.936;2023-09-07T08:43:35;25.40;98.10
15343;DHT22;7771;48.478;8.936;2023-09-07T08:46:20;25.50;97.80
15343;DHT22;7771;48.478;8.936;2023-09-07T08:51:17;25.80;97.60
15343;DHT22;7771;48.478;8.936;2023-09-07T08:53:43;25.90;97.70
15343;DHT22;7771;48.478;8.936;2023-09-07T08:56:10;26.00;97.40
15343;DHT22;7771;48.478;8.936;2023-09-07T08:58:38;26.10;97.30
15343;DHT22;7771;48.478;8.936;2023-09-07T09:03:35;26.40;97.30
15343;DHT22;7771;48.478;8.936;2023-09-07T09:06:02;26.50;97.00
15343;DHT22;7771;48.478;8.936;2023-09-07T09:10:59;26.50;97.00
15343;DHT22;7771;48.478;8.936;2023-09-07T09:13:29;26.70;96.80
15343;DHT22;7771;48.478;8.936;2023-09-07T09:15:55;26.80;96.80
15343;DHT22;7771;48.478;8.936;2023-09-07T09:18:21;26.90;96.90
15343;DHT22;7771;48.478;8.936;2023-09-07T09:20:49;27.00;97.10
15343;DHT22;7771;48.478;8.936;2023-09-07T09:23:16;27.10;96.60
15343;DHT22;7771;48.478;8.936;2023-09-07T09:25:44;27.20;96.80
15343;DHT22;7771;48.478;8.936;2023-09-07T09:28:12;27.20;96.70
15343;DHT22;7771;48.478;8.936;2023-09-07T09:30:40;27.20;96.40
15343;DHT22;7771;48.478;8.936;2023-09-07T09:33:06;27.30;96.50
15343;DHT22;7771;48.478;8.936;2023-09-07T09:35:34;27.40;96.40
15343;DHT22;7771;48.478;8.936;2023-09-07T09:38:02;27.40;96.50
15343;DHT22;7771;48.478;8.936;2023-09-07T09:40:31;27.50;96.20
15343;DHT22;7771;48.478;8.936;2023-09-07T09:42:57;27.60;96.00
15343;DHT22;7771;48.478;8.936;2023-09-07T09:45:24;27.70;95.90
15343;DHT22;7771;48.478;8.936;2023-09-07T09:47:51;27.70;95.80
15343;DHT22;7771;48.478;8.936;2023-09-07T09:50:18;27.80;95.70
15343;DHT22;7771;48.478;8.936;2023-09-07T09:52:46;27.90;95.30
15343;DHT22;7771;48.478;8.936;2023-09-07T09:55:13;27.90;95.30
15343;DHT22;7771;48.478;8.936;2023-09-07T09:57:40;27.90;95.50
15343;DHT22;7771;48.478;8.936;2023-09-07T10:00:07;28.00;95.30
15343;DHT22;7771;48.478;8.936;2023-09-07T10:02:50;28.10;95.20
15343;DHT22;7771;48.478;8.936;2023-09-07T10:05:17;28.10;95.40
15343;DHT22;7771;48.478;8.936;2023-09-07T10:10:13;28.30;95.40
15343;DHT22;7771;48.478;8.936;2023-09-07T10:12:41;28.40;94.80
15343;DHT22;7771;48.478;8.936;2023-09-07T10:15:19;28.40;94.70
15343;DHT22;7771;48.478;8.936;2023-09-07T10:20:04;28.40;95.40
15343;DHT22;7771;48.478;8.936;2023-09-07T10:22:33;28.40;94.90
15343;DHT22;7771;48.478;8.936;2023-09-07T10:25:00;28.40;95.00
15343;DHT22;7771;48.478;8.936;2023-09-07T10:29:55;28.50;95.10
15343;DHT22;7771;48.478;8.936;2023-09-07T10:32:22;28.50;95.00
15343;DHT22;7771;48.478;8.936;2023-09-07T10:34:49;28.50;94.90
15343;DHT22;7771;48.478;8.936;2023-09-07T10:37:16;28.60;95.20
15343;DHT22;7771;48.478;8.936;2023-09-07T10:39:43;28.60;95.20
15343;DHT22;7771;48.478;8.936;2023-09-07T10:42:26;28.80;94.90
15343;DHT22;7771;48.478;8.936;2023-09-07T10:44:53;28.70;94.90
15343;DHT22;7771;48.478;8.936;2023-09-07T10:47:21;28.70;95.50
15343;DHT22;7771;48.478;8.936;2023-09-07T10:49:47;28.70;95.40
15343;DHT22;7771;48.478;8.936;2023-09-07T10:52:14;28.80;95.10
15343;DHT22;7771;48.478;8.936;2023-09-07T10:54:40;28.80;95.30
15343;DHT22;7771;48.478;8.936;2023-09-07T10:57:09;28.90;95.50
15343;DHT22;7771;48.478;8.936;2023-09-07T10:59:36;29.00;95.10
15343;DHT22;7771;48.478;8.936;2023-09-07T11:02:04;28.90;95.20
15343;DHT22;7771;48.478;8.936;2023-09-07T11:04:32;28.90;95.30
15343;DHT22;7771;48.478;8.936;2023-09-07T11:06:58;28.90;95.20
15343;DHT22;7771;48.478;8.936;2023-09-07T11:09:26;28.90;95.60
15343;DHT22;7771;48.478;8.936;2023-09-07T11:11:54;29.10;95.40
15343;DHT22;7771;48.478;8.936;2023-09-07T11:14:21;29.10;95.20
15343;DHT22;7771;48.478;8.936;2023-09-07T11:16:47;29.20;95.40
15343;DHT22;7771;48.478;8.936;2023-09-07T11:19:14;29.30;95.30
15343;DHT22;7771;48.478;8.936;2023-09-07T11:21:41;29.50;94.70
15343;DHT22;7771;48.478;8.936;2023-09-07T11:24:08;29.50;94.70
15343;DHT22;7771;48.478;8.936;2023-09-07T11:26:43;29.50;94.60
15343;DHT22;7771;48.478;8.936;2023-09-07T11:29:13;29.50;94.80
15343;DHT22;7771;48.478;8.936;2023-09-07T11:31:37;29.50;94.80
15343;DHT22;7771;48.478;8.936;2023-09-07T11:34:08;29.40;95.00
15343;DHT22;7771;48.478;8.936;2023-09-07T11:39:00;29.50;95.30
15343;DHT22;7771;48.478;8.936;2023-09-07T11:41:27;29.70;95.10
15343;DHT22;7771;48.478;8.936;2023-09-07T11:43:54;29.80;94.80
15343;DHT22;7771;48.478;8.936;2023-09-07T11:46:21;30.00;94.50
15343;DHT22;7771;48.478;8.936;2023-09-07T11:48:47;30.00;94.60
15343;DHT22;7771;48.478;8.936;2023-09-07T11:51:15;30.00;94.80
15343;DHT22;7771;48.478;8.936;2023-09-07T11:53:42;30.00;94.90
15343;DHT22;7771;48.478;8.936;2023-09-07T11:56:09;30.10;94.60
15343;DHT22;7771;48.478;8.936;2023-09-07T12:01:04;30.30;94.70
15343;DHT22;7771;48.478;8.936;2023-09-07T12:03:31;30.40;94.60
15343;DHT22;7771;48.478;8.936;2023-09-07T12:06:00;30.40;94.60
15343;DHT22;7771;48.478;8.936;2023-09-07T12:08:26;30.50;94.50
15343;DHT22;7771;48.478;8.936;2023-09-07T12:10:53;30.60;94.20
15343;DHT22;7771;48.478;8.936;2023-09-07T12:13:20;30.70;94.00
15343;DHT22;7771;48.478;8.936;2023-09-07T12:15:46;30.80;93.90
15343;DHT22;7771;48.478;8.936;2023-09-07T12:18:13;30.80;94.00
15343;DHT22;7771;48.478;8.936;2023-09-07T12:20:40;30.90;93.90
15343;DHT22;7771;48.478;8.936;2023-09-07T12:23:06;31.00;93.70
15343;DHT22;7771;48.478;8.936;2023-09-07T12:25:34;31.00;93.50
15343;DHT22;7771;48.478;8.936;2023-09-07T12:28:00;31.10;93.50
15343;DHT22;7771;48.478;8.936;2023-09-07T12:30:28;31.20;93.50
15343;DHT22;7771;48.478;8.936;2023-09-07T12:32:55;31.20;93.40
15343;DHT22;7771;48.478;8.936;2023-09-07T12:35:21;31.30;93.20
15343;DHT22;7771;48.478;8.936;2023-09-07T12:37:48;31.30;93.20
15343;DHT22;7771;48.478;8.936;2023-09-07T12:40:15;31.30;93.10
15343;DHT22;7771;48.478;8.936;2023-09-07T12:42:43;31.40;92.90
15343;DHT22;7771;48.478;8.936;2023-09-07T12:45:10;31.50;93.10
15343;DHT22;7771;48.478;8.936;2023-09-07T12:47:38;31.50;92.60
15343;DHT22;7771;48.478;8.936;2023-09-07T12:50:04;31.50;92.50
15343;DHT22;7771;48.478;8.936;2023-09-07T12:52:31;31.50;92.50
15343;DHT22;7771;48.478;8.936;2023-09-07T12:54:57;31.50;92.50
15343;DHT22;7771;48.478;8.936;2023-09-07T12:57:24;31.50;92.50
15343;DHT22;7771;48.478;8.936;2023-09-07T12:59:51;31.60;92.30
15343;DHT22;7771;48.478;8.936;2023-09-07T13:02:17;31.60;92.30
15343;DHT22;7771;48.478;8.936;2023-09-07T13:04:45;31.70;91.90
15343;DHT22;7771;48.478;8.936;2023-09-07T13:09:42;31.60;91.90
15343;DHT22;7771;48.478;8.936;2023-09-07T13:12:07;31.70;92.00
15343;DHT22;7771;48.478;8.936;2023-09-07T13:17:02;31.80;91.60
15343;DHT22;7771;48.478;8.936;2023-09-07T13:19:28;31.80;91.60
15343;DHT22;7771;48.478;8.936;2023-09-07T13:24:23;31.80;91.60
15343;DHT22;7771;48.478;8.936;2023-09-07T13:26:50;31.90;91.40
15343;DHT22;7771;48.478;8.936;2023-09-07T13:29:17;31.90;91.40
15343;DHT22;7771;48.478;8.936;2023-09-07T13:31:44;31.90;91.60
15343;DHT22;7771;48.478;8.936;2023-09-07T13:36:39;31.90;91.10
15343;DHT22;7771;48.478;8.936;2023-09-07T13:41:34;31.90;91.30
15343;DHT22;7771;48.478;8.936;2023-09-07T13:44:02;31.80;91.30
15343;DHT22;7771;48.478;8.936;2023-09-07T13:46:29;31.80;91.40
15343;DHT22;7771;48.478;8.936;2023-09-07T13:48:55;31.80;91.40
15343;DHT22;7771;48.478;8.936;2023-09-07T13:53:51;31.80;91.40
15343;DHT22;7771;48.478;8.936;2023-09-07T13:56:18;31.80;91.40
15343;DHT22;7771;48.478;8.936;2023-09-07T13:58:45;31.80;91.30
15343;DHT22;7771;48.478;8.936;2023-09-07T14:01:13;31.70;91.20
15343;DHT22;7771;48.478;8.936;2023-09-07T14:03:41;31.70;91.40
15343;DHT22;7771;48.478;8.936;2023-09-07T14:06:07;31.70;91.40
15343;DHT22;7771;48.478;8.936;2023-09-07T14:11:03;31.60;91.30
15343;DHT22;7771;48.478;8.936;2023-09-07T14:13:31;31.60;91.30
15343;DHT22;7771;48.478;8.936;2023-09-07T14:18:25;31.60;91.10
15343;DHT22;7771;48.478;8.936;2023-09-07T14:20:52;31.60;91.10
15343;DHT22;7771;48.478;8.936;2023-09-07T14:23:18;31.60;91.10
15343;DHT22;7771;48.478;8.936;2023-09-07T14:25:46;31.50;91.40
15343;DHT22;7771;48.478;8.936;2023-09-07T14:28:13;31.50;91.30
15343;DHT22;7771;48.478;8.936;2023-09-07T14:30:40;31.40;91.30
15343;DHT22;7771;48.478;8.936;2023-09-07T14:33:07;31.40;91.40
15343;DHT22;7771;48.478;8.936;2023-09-07T14:35:34;31.30;91.00
15343;DHT22;7771;48.478;8.936;2023-09-07T14:38:01;31.30;91.00
15343;DHT22;7771;48.478;8.936;2023-09-07T14:40:28;31.30;91.10
15343;DHT22;7771;48.478;8.936;2023-09-07T14:42:56;31.20;91.10
15343;DHT22;7771;48.478;8.936;2023-09-07T14:45:24;31.20;91.20
15343;DHT22;7771;48.478;8.936;2023-09-07T14:47:52;31.10;91.20
15343;DHT22;7771;48.478;8.936;2023-09-07T14:50:18;31.10;91.20
15343;DHT22;7771;48.478;8.936;2023-09-07T14:52:46;31.10;91.20
15343;DHT22;7771;48.478;8.936;2023-09-07T14:55:14;31.10;90.90
15343;DHT22;7771;48.478;8.936;2023-09-07T14:57:41;31.20;91.00
15343;DHT22;7771;48.478;8.936;2023-09-07T15:00:09;31.30;90.90
15343;DHT22;7771;48.478;8.936;2023-09-07T15:02:36;31.50;90.40
15343;DHT22;7771;48.478;8.936;2023-09-07T15:05:03;31.60;90.20
15343;DHT22;7771;48.478;8.936;2023-09-07T15:07:30;31.50;89.70
15343;DHT22;7771;48.478;8.936;2023-09-07T15:09:57;31.50;90.00
15343;DHT22;7771;48.478;8.936;2023-09-07T15:12:24;31.40;89.90
15343;DHT22;7771;48.478;8.936;2023-09-07T15:14:52;31.20;90.00
15343;DHT22;7771;48.478;8.936;2023-09-07T15:17:19;31.10;90.10
15343;DHT22;7771;48.478;8.936;2023-09-07T15:22:15;30.80;90.30
15343;DHT22;7771;48.478;8.936;2023-09-07T15:24:43;30.70;90.50
15343;DHT22;7771;48.478;8.936;2023-09-07T15:29:38;30.40;90.50
15343;DHT22;7771;48.478;8.936;2023-09-07T15:32:06;30.40;90.70
15343;DHT22;7771;48.478;8.936;2023-09-07T15:34:34;30.30;90.80
15343;DHT22;7771;48.478;8.936;2023-09-07T15:37:03;30.20;90.70
15343;DHT22;7771;48.478;8.936;2023-09-07T15:39:27;30.10;90.90
15343;DHT22;7771;48.478;8.936;2023-09-07T15:41:54;30.10;90.70
15343;DHT22;7771;48.478;8.936;2023-09-07T15:44:21;29.90;90.70
15343;DHT22;7771;48.478;8.936;2023-09-07T15:46:49;29.90;90.50
15343;DHT22;7771;48.478;8.936;2023-09-07T15:49:16;29.90;90.50
15343;DHT22;7771;48.478;8.936;2023-09-07T15:51:44;29.80;90.40
15343;DHT22;7771;48.478;8.936;2023-09-07T15:54:10;29.80;90.50
15343;DHT22;7771;48.478;8.936;2023-09-07T15:56:37;29.80;90.10
15343;DHT22;7771;48.478;8.936;2023-09-07T15:59:04;29.70;90.30
15343;DHT22;7771;48.478;8.936;2023-09-07T16:01:31;29.60;90.10
15343;DHT22;7771;48.478;8.936;2023-09-07T16:03:59;29.60;90.40
15343;DHT22;7771;48.478;8.936;2023-09-07T16:06:26;29.60;90.00
15343;DHT22;7771;48.478;8.936;2023-09-07T16:08:54;29.60;90.00
15343;DHT22;7771;48.478;8.936;2023-09-07T16:11:20;29.50;90.20
15343;DHT22;7771;48.478;8.936;2023-09-07T16:13:47;29.30;90.20
15343;DHT22;7771;48.478;8.936;2023-09-07T16:16:15;29.30;90.30
15343;DHT22;7771;48.478;8.936;2023-09-07T16:18:42;29.30;90.40
15343;DHT22;7771;48.478;8.936;2023-09-07T16:21:09;29.30;90.50
15343;DHT22;7771;48.478;8.936;2023-09-07T16:23:36;29.20;90.80
15343;DHT22;7771;48.478;8.936;2023-09-07T16:28:31;29.10;91.20
15343;DHT22;7771;48.478;8.936;2023-09-07T16:30:59;29.10;91.40
15343;DHT22;7771;48.478;8.936;2023-09-07T16:35:53;29.10;91.50
15343;DHT22;7771;48.478;8.936;2023-09-07T16:38:21;29.00;91.50
15343;DHT22;7771;48.478;8.936;2023-09-07T16:45:44;28.80;91.50
15343;DHT22;7771;48.478;8.936;2023-09-07T16:48:11;28.80;91.70
15343;DHT22;7771;48.478;8.936;2023-09-07T16:50:44;28.70;91.70
15343;DHT22;7771;48.478;8.936;2023-09-07T16:53:07;28.60;91.80
15343;DHT22;7771;48.478;8.936;2023-09-07T16:55:34;28.60;91.90
15343;DHT22;7771;48.478;8.936;2023-09-07T16:58:02;28.50;92.20
15343;DHT22;7771;48.478;8.936;2023-09-07T17:00:29;28.40;92.10
15343;DHT22;7771;48.478;8.936;2023-09-07T17:02:57;28.40;92.20
15343;DHT22;7771;48.478;8.936;2023-09-07T17:05:24;28.30;92.30
15343;DHT22;7771;48.478;8.936;2023-09-07T17:07:52;28.20;92.50
15343;DHT22;7771;48.478;8.936;2023-09-07T17:10:19;28.20;92.60
15343;DHT22;7771;48.478;8.936;2023-09-07T17:12:46;28.20;92.70
15343;DHT22;7771;48.478;8.936;2023-09-07T17:15:14;28.00;93.10
15343;DHT22;7771;48.478;8.936;2023-09-07T17:17:42;28.00;93.00
15343;DHT22;7771;48.478;8.936;2023-09-07T17:20:09;27.90;93.20
15343;DHT22;7771;48.478;8.936;2023-09-07T17:22:37;27.80;93.40
15343;DHT22;7771;48.478;8.936;2023-09-07T17:25:04;27.80;93.80
15343;DHT22;7771;48.478;8.936;2023-09-07T17:27:32;27.80;93.70
15343;DHT22;7771;48.478;8.936;2023-09-07T17:32:27;27.60;93.80
15343;DHT22;7771;48.478;8.936;2023-09-07T17:34:53;27.60;93.90
15343;DHT22;7771;48.478;8.936;2023-09-07T17:37:20;27.50;94.00
15343;DHT22;7771;48.478;8.936;2023-09-07T17:39:47;27.40;94.20